createdAt,value
2023-04-20T05:01:14.311Z,575.00
2023-04-20T05:02:14.405Z,574.00
2023-04-20T05:03:14.512Z,572.00
2023-04-20T05:04:14.534Z,570.00
2023-04-20T05:05:14.460Z,565.00
2023-04-20T05:06:14.454Z,563.00
2023-04-20T05:07:14.526Z,561.00
2023-04-20T05:08:14.553Z,558.00
2023-04-20T05:09:14.623Z,556.00
2023-04-20T05:10:15.206Z,552.00
2023-04-20T05:11:14.588Z,549.00
2023-04-20T05:12:14.585Z,547.00
2023-04-20T05:13:14.600Z,544.00
2023-04-20T05:14:14.648Z,545.00
2023-04-20T05:15:14.708Z,541.00
2023-04-20T05:16:14.804Z,540.00
2023-04-20T05:17:14.838Z,540.00
2023-04-20T05:18:14.851Z,540.00
2023-04-20T05:19:14.955Z,541.00
2023-04-20T05:20:14.980Z,539.00
2023-04-20T05:21:15.064Z,536.00
2023-04-20T05:22:15.090Z,535.00
2023-04-20T05:23:15.150Z,539.00
2023-04-20T05:24:15.171Z,539.00
2023-04-20T05:25:15.247Z,536.00
2023-04-20T05:26:15.266Z,533.00
2023-04-20T05:27:15.346Z,533.00
2023-04-20T05:28:15.447Z,534.00
2023-04-20T05:29:15.528Z,533.00
2023-04-20T05:30:21.559Z,531.00
2023-04-20T05:31:16.564Z,531.00
2023-04-20T05:32:15.476Z,530.00
2023-04-20T05:33:15.573Z,531.00
2023-04-20T05:34:15.469Z,532.00
2023-04-20T05:35:15.442Z,530.00
2023-04-20T05:36:15.459Z,530.00
2023-04-20T05:37:15.409Z,530.00
2023-04-20T05:38:15.448Z,528.00
2023-04-20T05:39:15.630Z,528.00
2023-04-20T05:40:15.449Z,527.00
2023-04-20T05:41:15.504Z,526.00
2023-04-20T05:42:15.516Z,526.00
2023-04-20T05:43:15.584Z,523.00
2023-04-20T05:44:15.601Z,525.00
2023-04-20T05:45:15.665Z,524.00
2023-04-20T05:46:15.735Z,523.00
2023-04-20T05:47:15.719Z,522.00
2023-04-20T05:48:15.772Z,521.00
2023-04-20T05:49:15.972Z,524.00
2023-04-20T05:50:15.804Z,527.00
2023-04-20T05:51:15.872Z,540.00
2023-04-20T05:52:15.893Z,606.00
2023-04-20T05:53:16.044Z,595.00
2023-04-20T05:54:15.960Z,589.00
2023-04-20T05:55:18.399Z,585.00
2023-04-20T05:56:15.994Z,601.00
2023-04-20T05:57:15.998Z,599.00
2023-04-20T05:58:15.956Z,609.00
2023-04-20T05:59:16.252Z,634.00
2023-04-20T06:00:15.971Z,637.00
2023-04-20T06:01:15.941Z,630.00
2023-04-20T06:02:16.013Z,640.00
2023-04-20T06:03:16.167Z,714.00
2023-04-20T06:04:16.292Z,700.00
2023-04-20T06:05:15.970Z,707.00
2023-04-20T06:06:16.806Z,696.00
2023-04-20T06:07:15.924Z,655.00
2023-04-20T06:08:15.899Z,650.00
2023-04-20T06:09:16.027Z,680.00
2023-04-20T06:10:15.887Z,667.00
2023-04-20T06:11:15.870Z,709.00
2023-04-20T06:12:15.885Z,652.00
2023-04-20T06:13:15.864Z,642.00
2023-04-20T06:14:15.830Z,641.00
2023-04-20T06:15:15.835Z,635.00
2023-04-20T06:16:15.857Z,633.00
2023-04-20T06:17:16.746Z,640.00
2023-04-20T06:18:15.809Z,635.00
2023-04-20T06:19:16.082Z,627.00
2023-04-20T06:20:15.821Z,631.00
2023-04-20T06:21:15.792Z,624.00
2023-04-20T06:22:15.809Z,632.00
2023-04-20T06:23:15.767Z,620.00
2023-04-20T06:24:15.758Z,617.00
2023-04-20T06:25:15.992Z,616.00
2023-04-20T06:26:15.787Z,613.00
2023-04-20T06:27:15.802Z,602.00
2023-04-20T06:28:15.758Z,600.00
2023-04-20T06:29:15.992Z,606.00
2023-04-20T06:30:15.738Z,685.00
2023-04-20T06:31:15.781Z,684.00
2023-04-20T06:32:15.708Z,683.00
2023-04-20T06:33:15.703Z,705.00
2023-04-20T06:34:15.690Z,702.00
2023-04-20T06:35:15.690Z,704.00
2023-04-20T06:36:15.686Z,703.00
2023-04-20T06:37:15.837Z,700.00
2023-04-20T06:38:15.690Z,715.00
2023-04-20T06:39:16.022Z,719.00
2023-04-20T06:40:16.354Z,723.00
2023-04-20T06:41:15.668Z,724.00
2023-04-20T06:42:15.613Z,724.00
2023-04-20T06:43:15.667Z,730.00
2023-04-20T06:44:15.620Z,743.00
2023-04-20T06:45:15.649Z,750.00
2023-04-20T06:46:15.642Z,751.00
2023-04-20T06:47:15.706Z,753.00
2023-04-20T06:48:30.793Z,751.00
2023-04-20T06:49:16.823Z,750.00
2023-04-20T06:50:15.602Z,806.00
2023-04-20T06:51:15.597Z,793.00
2023-04-20T06:52:15.624Z,785.00
2023-04-20T06:53:15.562Z,792.00
2023-04-20T06:54:15.563Z,791.00
2023-04-20T06:55:15.570Z,804.00
2023-04-20T06:56:15.556Z,882.00
2023-04-20T06:57:15.516Z,831.00
2023-04-20T06:58:15.519Z,698.00
2023-04-20T06:59:15.727Z,681.00
2023-04-20T07:00:15.641Z,685.00
2023-04-20T07:01:15.675Z,703.00
2023-04-20T07:02:15.844Z,711.00
2023-04-20T07:03:15.961Z,715.00
2023-04-20T07:04:15.958Z,703.00
2023-04-20T07:05:15.953Z,699.00
2023-04-20T07:06:16.763Z,698.00
2023-04-20T07:07:17.771Z,701.00
2023-04-20T07:08:16.302Z,696.00
2023-04-20T07:09:16.271Z,699.00
2023-04-20T07:10:16.297Z,704.00
2023-04-20T07:11:16.288Z,701.00
2023-04-20T07:12:16.344Z,699.00
2023-04-20T07:13:16.386Z,710.00
2023-04-20T07:14:16.423Z,720.00
2023-04-20T07:15:16.472Z,721.00
2023-04-20T07:16:16.642Z,723.00
2023-04-20T07:17:16.622Z,758.00
2023-04-20T07:18:16.666Z,765.00
2023-04-20T07:19:16.810Z,765.00
2023-04-20T07:20:16.782Z,763.00
2023-04-20T07:21:16.808Z,762.00
2023-04-20T07:22:16.807Z,763.00
2023-04-20T07:23:16.878Z,773.00
2023-04-20T07:24:16.883Z,786.00
2023-04-20T07:25:16.922Z,786.00
2023-04-20T07:26:16.978Z,790.00
2023-04-20T07:27:16.959Z,796.00
2023-04-20T07:28:16.965Z,801.00
2023-04-20T07:29:17.265Z,806.00
2023-04-20T07:30:17.029Z,809.00
2023-04-20T07:31:17.093Z,838.00
2023-04-20T07:32:17.170Z,841.00
2023-04-20T07:33:17.081Z,846.00
2023-04-20T07:34:17.269Z,844.00
2023-04-20T07:35:17.080Z,844.00
2023-04-20T07:36:17.110Z,852.00
2023-04-20T07:37:17.088Z,861.00
2023-04-20T07:38:17.115Z,878.00
2023-04-20T07:39:17.382Z,892.00
2023-04-20T07:40:17.081Z,905.00
2023-04-20T07:41:17.211Z,910.00
2023-04-20T07:42:17.103Z,922.00
2023-04-20T07:43:17.055Z,976.00
2023-04-20T07:44:17.068Z,974.00
2023-04-20T07:45:17.061Z,971.00
2023-04-20T07:46:17.235Z,955.00
2023-04-20T07:47:17.107Z,951.00
2023-04-20T07:48:17.104Z,943.00
2023-04-20T07:49:17.401Z,944.00
2023-04-20T07:50:17.156Z,943.00
2023-04-20T07:51:17.187Z,891.00
2023-04-20T07:52:17.617Z,883.00
2023-04-20T07:53:17.256Z,886.00
2023-04-20T07:54:17.318Z,895.00
2023-04-20T07:55:17.337Z,975.00
2023-04-20T07:56:17.353Z,933.00
2023-04-20T07:57:17.402Z,935.00
2023-04-20T07:58:17.430Z,949.00
2023-04-20T07:59:17.577Z,940.00
2023-04-20T08:00:17.505Z,920.00
2023-04-20T08:01:17.532Z,902.00
2023-04-20T08:02:17.676Z,884.00
2023-04-20T08:03:17.773Z,873.00
2023-04-20T08:04:17.887Z,867.00
2023-04-20T08:05:17.869Z,860.00
2023-04-20T08:06:17.809Z,858.00
2023-04-20T08:07:17.990Z,858.00
2023-04-20T08:08:17.950Z,863.00
2023-04-20T08:09:18.097Z,953.00
2023-04-20T08:10:17.999Z,866.00
2023-04-20T08:11:18.096Z,867.00
2023-04-20T08:12:18.130Z,858.00
2023-04-20T08:13:18.226Z,729.00
2023-04-20T08:14:18.394Z,701.00
2023-04-20T08:15:18.208Z,687.00
2023-04-20T08:16:18.312Z,677.00
2023-04-20T08:17:18.212Z,664.00
2023-04-20T08:18:19.523Z,687.00
2023-04-20T08:19:18.374Z,671.00
2023-04-20T08:20:18.205Z,668.00
2023-04-20T08:21:18.233Z,656.00
2023-04-20T08:22:18.213Z,649.00
2023-04-20T08:23:18.240Z,647.00
2023-04-20T08:24:18.484Z,648.00
2023-04-20T08:25:18.194Z,647.00
2023-04-20T08:26:18.147Z,646.00
2023-04-20T08:27:18.197Z,643.00
2023-04-20T08:28:32.460Z,643.00
2023-04-20T08:29:19.365Z,650.00
2023-04-20T08:30:18.134Z,732.00
2023-04-20T08:31:18.179Z,743.00
2023-04-20T08:32:18.167Z,748.00
2023-04-20T08:33:18.138Z,749.00
2023-04-20T08:34:18.106Z,746.00
2023-04-20T08:35:18.133Z,743.00
2023-04-20T08:36:18.119Z,737.00
2023-04-20T08:37:18.128Z,730.00
2023-04-20T08:38:20.820Z,723.00
2023-04-20T08:39:19.062Z,718.00
2023-04-20T08:40:18.062Z,717.00
2023-04-20T08:41:18.074Z,716.00
2023-04-20T08:42:18.049Z,714.00
2023-04-20T08:43:18.068Z,715.00
2023-04-20T08:44:18.303Z,721.00
2023-04-20T08:45:18.051Z,736.00
2023-04-20T08:46:18.024Z,771.00
2023-04-20T08:47:18.069Z,770.00
2023-04-20T08:48:18.029Z,768.00
2023-04-20T08:49:18.011Z,772.00
2023-04-20T08:50:17.995Z,779.00
2023-04-20T08:51:17.991Z,785.00
2023-04-20T08:52:17.971Z,791.00
2023-04-20T08:53:17.980Z,795.00
2023-04-20T08:54:18.320Z,804.00
2023-04-20T08:55:17.953Z,807.00
2023-04-20T08:56:17.963Z,827.00
2023-04-20T08:57:17.939Z,829.00
2023-04-20T08:58:17.961Z,830.00
2023-04-20T08:59:17.957Z,830.00
2023-04-20T09:00:17.907Z,829.00
2023-04-20T09:01:22.656Z,841.00
2023-04-20T09:02:19.016Z,863.00
2023-04-20T09:03:18.228Z,878.00
2023-04-20T09:04:18.681Z,931.00
2023-04-20T09:05:17.950Z,919.00
2023-04-20T09:06:17.876Z,922.00
2023-04-20T09:07:17.888Z,934.00
2023-04-20T09:08:17.901Z,957.00
2023-04-20T09:09:17.862Z,1008.00
2023-04-20T09:10:17.893Z,1018.00
2023-04-20T09:11:17.851Z,1024.00
2023-04-20T09:12:17.845Z,1042.00
2023-04-20T09:13:17.902Z,1118.00
2023-04-20T09:14:18.505Z,1120.00
2023-04-20T09:15:17.995Z,1115.00
2023-04-20T09:16:18.026Z,1126.00
2023-04-20T09:17:18.340Z,1139.00
2023-04-20T09:18:18.067Z,1152.00
2023-04-20T09:19:18.105Z,1164.00
2023-04-20T09:20:18.116Z,1184.00
2023-04-20T09:21:18.120Z,1199.00
2023-04-20T09:22:18.192Z,1208.00
2023-04-20T09:23:18.163Z,1217.00
2023-04-20T09:24:18.280Z,1220.00
2023-04-20T09:25:18.200Z,1218.00
2023-04-20T09:26:18.189Z,1237.00
2023-04-20T09:27:18.259Z,1268.00
2023-04-20T09:28:18.216Z,1279.00
2023-04-20T09:29:18.210Z,1298.00
2023-04-20T09:30:18.223Z,1338.00
2023-04-20T09:31:18.290Z,1357.00
2023-04-20T09:32:18.251Z,1372.00
2023-04-20T09:33:18.220Z,1380.00
2023-04-20T09:34:18.408Z,1402.00
2023-04-20T09:35:18.259Z,1427.00
2023-04-20T09:36:18.247Z,1454.00
2023-04-20T09:37:18.221Z,1449.00
2023-04-20T09:38:18.262Z,1459.00
2023-04-20T09:39:18.247Z,1469.00
2023-04-20T09:40:18.244Z,1469.00
2023-04-20T09:41:18.224Z,1466.00
2023-04-20T09:42:18.263Z,1461.00
2023-04-20T09:43:18.215Z,1181.00
2023-04-20T09:44:18.500Z,826.00
2023-04-20T09:45:18.310Z,800.00
2023-04-20T09:46:18.391Z,714.00
2023-04-20T09:47:18.353Z,716.00
2023-04-20T09:48:18.360Z,626.00
2023-04-20T09:49:18.449Z,607.00
2023-04-20T09:50:26.719Z,596.00
2023-04-20T09:51:19.477Z,583.00
2023-04-20T09:52:18.519Z,570.00
2023-04-20T09:53:18.528Z,553.00
2023-04-20T09:54:18.579Z,540.00
2023-04-20T09:55:18.450Z,525.00
2023-04-20T09:56:18.464Z,516.00
2023-04-20T09:57:18.406Z,510.00
2023-04-20T09:58:18.403Z,509.00
2023-04-20T09:59:18.452Z,514.00
2023-04-20T10:00:18.418Z,543.00
2023-04-20T10:01:18.459Z,547.00
2023-04-20T10:02:18.485Z,534.00
2023-04-20T10:03:18.526Z,529.00
2023-04-20T10:04:18.664Z,523.00
2023-04-20T10:05:18.599Z,515.00
2023-04-20T10:06:18.450Z,509.00
2023-04-20T10:07:18.524Z,508.00
2023-04-20T10:08:18.572Z,506.00
2023-04-20T10:09:18.577Z,503.00
2023-04-20T10:10:18.651Z,503.00
2023-04-20T10:11:18.628Z,502.00
2023-04-20T10:12:18.691Z,506.00
2023-04-20T10:13:18.649Z,515.00
2023-04-20T10:14:18.895Z,506.00
2023-04-20T10:15:18.723Z,498.00
2023-04-20T10:16:18.728Z,494.00
2023-04-20T10:17:18.743Z,492.00
2023-04-20T10:18:18.799Z,490.00
2023-04-20T10:19:18.670Z,487.00
2023-04-20T10:20:18.683Z,485.00
2023-04-20T10:21:18.711Z,481.00
2023-04-20T10:22:18.694Z,476.00
2023-04-20T10:23:18.844Z,473.00
2023-04-20T10:24:20.411Z,471.00
2023-04-20T10:25:18.784Z,472.00
2023-04-20T10:26:18.828Z,480.00
2023-04-20T10:27:18.830Z,479.00
2023-04-20T10:28:18.863Z,484.00
2023-04-20T10:29:18.846Z,485.00
2023-04-20T10:30:18.890Z,488.00
2023-04-20T10:31:18.963Z,497.00
2023-04-20T10:32:18.956Z,523.00
2023-04-20T10:33:19.023Z,574.00
2023-04-20T10:34:19.110Z,572.00
2023-04-20T10:35:19.032Z,580.00
2023-04-20T10:36:19.052Z,589.00
2023-04-20T10:37:19.165Z,597.00
2023-04-20T10:38:19.074Z,597.00
2023-04-20T10:39:19.754Z,601.00
2023-04-20T10:40:19.117Z,614.00
2023-04-20T10:41:19.220Z,625.00
2023-04-20T10:42:19.249Z,695.00
2023-04-20T10:43:19.275Z,725.00
2023-04-20T10:44:19.511Z,758.00
2023-04-20T10:45:19.357Z,759.00
2023-04-20T10:46:19.462Z,756.00
2023-04-20T10:47:19.434Z,758.00
2023-04-20T10:48:19.419Z,757.00
2023-04-20T10:49:19.561Z,758.00
2023-04-20T10:50:19.433Z,755.00
2023-04-20T10:51:19.431Z,762.00
2023-04-20T10:52:19.405Z,773.00
2023-04-20T10:53:19.464Z,780.00
2023-04-20T10:54:19.497Z,678.00
2023-04-20T10:55:19.429Z,639.00
2023-04-20T10:56:19.474Z,659.00
2023-04-20T10:57:19.611Z,686.00
2023-04-20T10:58:19.558Z,630.00
2023-04-20T10:59:19.829Z,606.00
2023-04-20T11:00:19.571Z,602.00
2023-04-20T11:01:19.634Z,643.00
2023-04-20T11:02:19.785Z,626.00
2023-04-20T11:03:19.866Z,596.00
2023-04-20T11:04:19.693Z,571.00
2023-04-20T11:05:19.961Z,545.00
2023-04-20T11:06:19.761Z,542.00
2023-04-20T11:07:19.784Z,541.00
2023-04-20T11:08:19.812Z,547.00
2023-04-20T11:09:20.024Z,554.00
2023-04-20T11:10:19.870Z,561.00
2023-04-20T11:11:19.893Z,567.00
2023-04-20T11:12:19.927Z,573.00
2023-04-20T11:13:19.923Z,577.00
2023-04-20T11:14:19.956Z,580.00
2023-04-20T11:15:19.981Z,586.00
2023-04-20T11:16:20.061Z,588.00
2023-04-20T11:17:20.009Z,592.00
2023-04-20T11:18:20.012Z,601.00
2023-04-20T11:19:20.087Z,648.00
2023-04-20T11:20:20.126Z,661.00
2023-04-20T11:21:20.187Z,668.00
2023-04-20T11:22:20.241Z,672.00
2023-04-20T11:23:20.266Z,673.00
2023-04-20T11:24:20.323Z,674.00
2023-04-20T11:25:20.444Z,678.00
2023-04-20T11:26:20.391Z,680.00
2023-04-20T11:27:20.420Z,679.00
2023-04-20T11:28:20.503Z,679.00
2023-04-20T11:29:20.608Z,678.00
2023-04-20T11:30:20.483Z,677.00
2023-04-20T11:31:20.506Z,677.00
2023-04-20T11:32:20.642Z,674.00
2023-04-20T11:33:20.561Z,673.00
2023-04-20T11:34:20.516Z,672.00
2023-04-20T11:35:20.518Z,671.00
2023-04-20T11:36:20.527Z,669.00
2023-04-20T11:37:20.537Z,669.00
2023-04-20T11:38:20.548Z,669.00
2023-04-20T11:39:20.563Z,587.00
2023-04-20T11:40:20.666Z,582.00
2023-04-20T11:41:20.724Z,565.00
2023-04-20T11:42:20.650Z,537.00
2023-04-20T11:43:20.698Z,521.00
2023-04-20T11:44:20.705Z,511.00
2023-04-20T11:45:20.733Z,505.00
2023-04-20T11:46:20.857Z,497.00
2023-04-20T11:47:20.833Z,497.00
2023-04-20T11:48:20.806Z,491.00
2023-04-20T11:49:20.873Z,485.00
2023-04-20T11:50:20.934Z,480.00
2023-04-20T11:51:20.910Z,478.00
2023-04-20T11:52:20.909Z,480.00
2023-04-20T11:53:20.960Z,479.00
2023-04-20T11:54:20.940Z,482.00
2023-04-20T11:55:20.972Z,478.00
2023-04-20T11:56:20.997Z,477.00
2023-04-20T11:57:21.084Z,475.00
2023-04-20T11:58:21.138Z,477.00
2023-04-20T11:59:21.650Z,477.00
2023-04-20T12:00:21.266Z,477.00
2023-04-20T12:01:21.347Z,476.00
